createdAt,value
2023-04-25T00:02:10.060Z,18.20
2023-04-25T00:04:39.535Z,18.33
2023-04-25T00:07:07.868Z,18.22
2023-04-25T00:09:35.901Z,18.35
2023-04-25T00:12:03.589Z,18.57
2023-04-25T00:14:34.878Z,18.39
2023-04-25T00:17:03.987Z,18.41
2023-04-25T00:19:31.867Z,18.39
2023-04-25T00:22:00.204Z,18.22
2023-04-25T00:24:28.116Z,18.06
2023-04-25T00:26:55.855Z,18.15
2023-04-25T00:29:23.775Z,17.95
2023-04-25T00:31:51.423Z,18.13
2023-04-25T00:34:19.804Z,17.85
2023-04-25T00:36:47.625Z,17.73
2023-04-25T00:39:15.800Z,17.90
2023-04-25T00:41:44.176Z,18.02
2023-04-25T00:44:13.137Z,18.03
2023-04-25T00:46:41.364Z,18.05
2023-04-25T00:49:09.445Z,17.80
2023-04-25T00:51:37.125Z,17.88
2023-04-25T00:54:05.174Z,17.80
2023-04-25T00:56:32.804Z,17.73
2023-04-25T00:59:00.718Z,17.81
2023-04-25T01:01:29.376Z,17.98
2023-04-25T01:03:59.560Z,17.96
2023-04-25T01:06:28.790Z,18.04
2023-04-25T01:08:57.543Z,18.07
2023-04-25T01:11:25.273Z,18.06
2023-04-25T01:13:53.437Z,17.81
2023-04-25T01:16:21.658Z,17.90
2023-04-25T01:18:50.025Z,17.62
2023-04-25T01:21:18.239Z,17.82
2023-04-25T01:23:48.864Z,17.67
2023-04-25T01:26:16.823Z,17.92
2023-04-25T01:28:45.305Z,18.09
2023-04-25T01:31:14.136Z,17.92
2023-04-25T01:33:42.115Z,17.94
2023-04-25T01:36:10.245Z,18.17
2023-04-25T01:38:38.223Z,18.03
2023-04-25T01:41:06.320Z,18.15
2023-04-25T01:43:34.461Z,18.20
2023-04-25T01:46:02.598Z,18.00
2023-04-25T01:48:30.896Z,18.19
2023-04-25T01:50:59.117Z,18.16
2023-04-25T01:53:27.289Z,18.26
2023-04-25T01:55:55.014Z,18.12
2023-04-25T01:58:25.071Z,18.00
2023-04-25T02:01:05.947Z,18.03
2023-04-25T02:03:41.833Z,18.24
2023-04-25T02:06:17.736Z,18.08
2023-04-25T02:08:47.774Z,18.23
2023-04-25T02:11:15.581Z,18.26
2023-04-25T02:13:49.987Z,18.36
2023-04-25T02:16:34.048Z,18.29
2023-04-25T02:19:03.261Z,18.24
2023-04-25T02:21:32.226Z,18.41
2023-04-25T02:24:00.374Z,18.42
2023-04-25T02:26:30.208Z,18.45
2023-04-25T02:28:58.540Z,18.17
2023-04-25T02:31:26.254Z,18.23
2023-04-25T02:33:54.318Z,18.48
2023-04-25T02:36:21.988Z,18.42
2023-04-25T02:38:50.368Z,18.34
2023-04-25T02:41:18.002Z,18.25
2023-04-25T02:43:45.997Z,18.10
2023-04-25T02:46:13.704Z,18.11
2023-04-25T02:48:41.697Z,18.22
2023-04-25T02:51:10.277Z,17.89
2023-04-25T02:53:38.291Z,17.82
2023-04-25T02:56:06.435Z,18.24
2023-04-25T02:58:34.672Z,18.27
2023-04-25T03:01:02.368Z,18.32
2023-04-25T03:03:30.565Z,18.32
2023-04-25T03:05:58.236Z,18.34
2023-04-25T03:08:33.807Z,18.28
2023-04-25T03:11:02.704Z,18.21
2023-04-25T03:13:31.119Z,18.34
2023-04-25T03:15:59.969Z,18.32
2023-04-25T03:18:28.020Z,18.27
2023-04-25T03:20:56.451Z,18.27
2023-04-25T03:23:25.389Z,18.43
2023-04-25T03:25:53.097Z,18.36
2023-04-25T03:28:21.371Z,18.34
2023-04-25T03:30:49.447Z,18.30
2023-04-25T03:33:17.519Z,18.23
2023-04-25T03:35:45.125Z,18.24
2023-04-25T03:38:13.463Z,18.15
2023-04-25T03:40:42.067Z,18.10
2023-04-25T03:43:27.104Z,18.11
2023-04-25T03:46:03.381Z,18.10
2023-04-25T03:48:31.537Z,17.96
2023-04-25T03:51:00.327Z,17.97
2023-04-25T03:53:28.376Z,17.78
2023-04-25T03:56:14.596Z,17.75
2023-04-25T03:58:43.357Z,17.84
2023-04-25T04:01:11.477Z,17.77
2023-04-25T04:03:41.464Z,17.78
2023-04-25T04:06:10.275Z,17.78
2023-04-25T04:08:41.965Z,17.65
2023-04-25T04:11:11.938Z,17.86
2023-04-25T04:13:40.125Z,17.76
2023-04-25T04:16:09.226Z,17.78
2023-04-25T04:18:37.412Z,17.49
2023-04-25T04:21:05.177Z,17.51
2023-04-25T04:23:38.270Z,17.42
2023-04-25T04:26:09.763Z,17.47
2023-04-25T04:28:40.686Z,17.76
2023-04-25T04:31:22.735Z,17.91
2023-04-25T04:33:52.385Z,17.78
2023-04-25T04:36:24.295Z,17.67
2023-04-25T04:38:53.859Z,17.57
2023-04-25T04:41:37.036Z,17.49
2023-04-25T04:44:15.945Z,17.62
2023-04-25T04:46:50.572Z,17.88
2023-04-25T04:49:47.716Z,17.67
2023-04-25T04:52:31.832Z,17.92
2023-04-25T04:55:34.978Z,17.90
2023-04-25T04:58:25.818Z,17.90
2023-04-25T05:01:20.399Z,17.73
2023-04-25T05:04:04.514Z,17.62
2023-04-25T05:06:47.529Z,17.79
2023-04-25T05:09:16.468Z,17.62
2023-04-25T05:12:02.457Z,17.12
2023-04-25T05:14:50.479Z,15.80
2023-04-25T05:17:52.181Z,14.66
2023-04-25T05:20:22.896Z,13.82
2023-04-25T05:23:02.707Z,13.92
2023-04-25T05:26:06.647Z,13.47
2023-04-25T05:28:45.309Z,13.29
2023-04-25T05:31:25.186Z,13.31
2023-04-25T05:34:02.189Z,13.51
2023-04-25T05:36:46.374Z,13.51
2023-04-25T05:39:19.078Z,13.73
2023-04-25T05:42:05.315Z,13.97
2023-04-25T05:44:54.914Z,14.11
2023-04-25T05:47:32.582Z,14.00
2023-04-25T05:50:11.833Z,14.16
2023-04-25T05:52:50.112Z,14.30
2023-04-25T05:55:36.998Z,14.24
2023-04-25T05:58:19.657Z,14.12
2023-04-25T06:00:47.704Z,14.47
2023-04-25T06:03:18.759Z,14.51
2023-04-25T06:05:49.335Z,14.64
2023-04-25T06:08:17.741Z,14.64
2023-04-25T06:10:46.023Z,14.84
2023-04-25T06:13:13.694Z,14.87
2023-04-25T06:15:41.980Z,15.13
2023-04-25T06:18:09.722Z,14.90
2023-04-25T06:20:37.862Z,15.02
2023-04-25T06:23:06.035Z,15.10
2023-04-25T06:25:52.608Z,15.20
2023-04-25T06:28:23.350Z,15.15
2023-04-25T06:30:51.911Z,15.18
2023-04-25T06:33:22.598Z,15.22
2023-04-25T06:35:51.434Z,15.38
2023-04-25T06:38:24.273Z,15.43
2023-04-25T06:40:53.885Z,15.36
2023-04-25T06:43:21.716Z,15.68
2023-04-25T06:46:05.343Z,15.79
2023-04-25T06:48:37.221Z,16.06
2023-04-25T06:51:06.894Z,16.23
2023-04-25T06:53:35.882Z,16.07
2023-04-25T06:56:06.545Z,16.29
2023-04-25T06:58:52.036Z,16.31
2023-04-25T07:01:32.308Z,16.45
2023-04-25T07:04:02.631Z,16.55
2023-04-25T07:06:33.732Z,16.85
2023-04-25T07:09:01.591Z,16.80
2023-04-25T07:11:30.414Z,16.63
2023-04-25T07:13:58.118Z,16.51
2023-04-25T07:16:26.353Z,16.61
2023-04-25T07:18:54.298Z,16.41
2023-04-25T07:21:22.408Z,16.38
2023-04-25T07:23:52.517Z,15.94
2023-04-25T07:26:25.950Z,15.72
2023-04-25T07:29:16.768Z,15.85
2023-04-25T07:31:44.911Z,15.92
2023-04-25T07:34:12.689Z,15.91
2023-04-25T07:36:41.368Z,15.86
2023-04-25T07:39:12.097Z,15.75
2023-04-25T07:41:40.554Z,15.51
2023-04-25T07:44:12.396Z,15.34
2023-04-25T07:46:40.492Z,15.66
2023-04-25T07:49:09.049Z,15.85
2023-04-25T07:51:37.589Z,15.73
2023-04-25T07:54:11.171Z,15.59
2023-04-25T07:56:52.182Z,15.54
2023-04-25T07:59:22.937Z,15.36
2023-04-25T08:01:51.341Z,15.25
2023-04-25T08:04:21.121Z,15.64
2023-04-25T08:06:55.134Z,15.89
2023-04-25T08:09:30.506Z,15.86
2023-04-25T08:11:59.186Z,16.23
2023-04-25T08:14:36.990Z,16.53
2023-04-25T08:17:06.400Z,16.78
2023-04-25T08:19:40.568Z,16.91
2023-04-25T08:22:12.268Z,16.68
2023-04-25T08:24:50.125Z,16.69
2023-04-25T08:27:22.120Z,16.72
2023-04-25T08:29:50.385Z,17.26
2023-04-25T08:32:20.038Z,17.49
2023-04-25T08:35:03.011Z,17.81
2023-04-25T08:37:30.857Z,18.12
2023-04-25T08:40:04.513Z,18.02
2023-04-25T08:42:44.495Z,18.02
2023-04-25T08:45:13.627Z,18.18
2023-04-25T08:47:46.097Z,18.30
2023-04-25T08:50:14.343Z,18.36
2023-04-25T08:52:45.234Z,18.68
2023-04-25T08:55:14.147Z,18.61
2023-04-25T08:57:44.041Z,18.75
2023-04-25T09:00:13.686Z,18.74
2023-04-25T09:02:45.239Z,18.97
2023-04-25T09:05:14.679Z,19.08
2023-04-25T09:07:42.890Z,19.29
2023-04-25T09:10:11.063Z,19.16
2023-04-25T09:12:39.972Z,19.20
2023-04-25T09:15:11.345Z,19.13
2023-04-25T09:18:14.615Z,19.45
2023-04-25T09:23:16.404Z,19.48
2023-04-25T09:25:44.613Z,19.38
2023-04-25T09:28:12.305Z,19.82
2023-04-25T09:30:40.435Z,20.01
2023-04-25T09:33:15.442Z,20.28
2023-04-25T09:35:54.093Z,20.19
2023-04-25T09:38:43.300Z,20.22
2023-04-25T09:41:23.603Z,20.89
2023-04-25T09:43:51.917Z,20.84
2023-04-25T09:46:26.635Z,20.51
2023-04-25T09:48:57.403Z,20.58
2023-04-25T09:51:35.651Z,20.68
2023-04-25T09:54:04.387Z,21.42
2023-04-25T09:56:49.706Z,20.94
2023-04-25T09:59:17.451Z,20.26
2023-04-25T10:01:45.747Z,21.24
2023-04-25T10:04:24.170Z,21.30
2023-04-25T10:07:14.865Z,21.83
2023-04-25T10:09:48.594Z,22.02
2023-04-25T10:12:17.787Z,21.09
2023-04-25T10:14:45.708Z,21.16
2023-04-25T10:17:13.777Z,21.98
2023-04-25T10:19:41.664Z,22.95
2023-04-25T10:22:14.243Z,22.60
2023-04-25T10:24:42.292Z,21.80
2023-04-25T10:27:10.704Z,21.85
2023-04-25T10:29:38.503Z,21.53
2023-04-25T10:32:06.636Z,21.07
2023-04-25T10:34:41.924Z,20.94
2023-04-25T10:37:11.398Z,21.40
2023-04-25T10:39:42.781Z,21.11
2023-04-25T10:42:10.853Z,22.22
2023-04-25T10:44:39.534Z,21.11
2023-04-25T10:47:08.518Z,21.09
2023-04-25T10:49:37.450Z,22.04
2023-04-25T10:52:26.776Z,22.40
2023-04-25T10:54:55.830Z,22.35
2023-04-25T10:57:43.073Z,22.53
2023-04-25T11:00:14.221Z,23.28
2023-04-25T11:02:44.405Z,22.22
2023-04-25T11:05:19.045Z,20.81
2023-04-25T11:08:03.896Z,21.03
2023-04-25T11:10:38.615Z,22.19
2023-04-25T11:13:06.671Z,22.47
2023-04-25T11:15:34.475Z,22.09
2023-04-25T11:18:02.951Z,22.75
2023-04-25T11:20:30.685Z,23.32
2023-04-25T11:22:59.789Z,22.03
2023-04-25T11:25:27.432Z,22.21
2023-04-25T11:27:57.200Z,23.84
2023-04-25T11:30:26.143Z,22.96
2023-04-25T11:32:54.375Z,22.74
2023-04-25T11:35:24.476Z,22.83
2023-04-25T11:37:52.746Z,23.13
2023-04-25T11:40:20.648Z,22.71
2023-04-25T11:42:49.019Z,22.52
2023-04-25T11:45:16.652Z,23.16
2023-04-25T11:47:44.740Z,22.71
2023-04-25T11:50:12.562Z,23.25
2023-04-25T11:52:42.165Z,22.66
2023-04-25T11:55:11.543Z,22.91
2023-04-25T11:57:40.203Z,22.74
2023-04-25T12:00:18.112Z,22.91
2023-04-25T12:02:52.525Z,22.23
2023-04-25T12:05:32.237Z,23.01
2023-04-25T12:08:11.992Z,22.03
2023-04-25T12:10:41.331Z,22.35
2023-04-25T12:13:22.410Z,23.08
2023-04-25T12:15:50.375Z,22.10
2023-04-25T12:18:22.397Z,21.75
2023-04-25T12:20:50.164Z,21.53
2023-04-25T12:23:18.138Z,21.72
2023-04-25T12:25:46.865Z,21.33
2023-04-25T12:28:15.277Z,21.61
2023-04-25T12:30:55.055Z,21.20
2023-04-25T12:33:23.581Z,20.83
2023-04-25T12:35:51.356Z,21.13
2023-04-25T12:38:26.686Z,20.70
2023-04-25T12:40:54.626Z,20.85
2023-04-25T12:43:23.145Z,20.58
2023-04-25T12:45:52.169Z,20.81
2023-04-25T12:48:20.583Z,20.34
2023-04-25T12:50:51.808Z,20.26
2023-04-25T12:53:23.656Z,20.31
2023-04-25T12:55:51.982Z,19.52
2023-04-25T12:58:21.125Z,19.83
2023-04-25T13:00:48.960Z,19.43
2023-04-25T13:03:18.101Z,18.96
2023-04-25T13:05:45.862Z,18.98
2023-04-25T13:08:13.812Z,18.86
2023-04-25T13:10:41.560Z,18.51
2023-04-25T13:13:09.796Z,18.82
2023-04-25T13:15:37.721Z,18.75
2023-04-25T13:18:08.981Z,18.42
2023-04-25T13:20:36.900Z,18.46
2023-04-25T13:23:04.942Z,18.33
2023-04-25T13:25:32.579Z,18.55
2023-04-25T13:28:00.604Z,18.72
2023-04-25T13:30:28.176Z,18.43
2023-04-25T13:32:58.223Z,18.24
2023-04-25T13:35:26.223Z,18.39
2023-04-25T13:37:54.253Z,18.22
2023-04-25T13:40:23.876Z,18.34
2023-04-25T13:42:53.925Z,18.27
2023-04-25T13:45:21.849Z,18.13
2023-04-25T13:47:50.167Z,17.94
2023-04-25T13:50:18.004Z,17.99
2023-04-25T13:52:46.241Z,17.94
2023-04-25T13:55:13.820Z,17.89
2023-04-25T13:57:41.760Z,17.76
2023-04-25T14:00:12.423Z,17.84
2023-04-25T14:02:40.661Z,17.96
2023-04-25T14:05:09.284Z,18.13
2023-04-25T14:07:37.812Z,17.84
2023-04-25T14:10:06.586Z,17.59
2023-04-25T14:12:34.854Z,17.65
2023-04-25T14:15:02.616Z,17.61
2023-04-25T14:17:31.095Z,17.80
2023-04-25T14:19:58.854Z,17.73
2023-04-25T14:22:27.745Z,17.37
2023-04-25T14:24:56.435Z,17.45
2023-04-25T14:27:24.391Z,17.28
2023-04-25T14:29:52.077Z,17.25
2023-04-25T14:32:20.103Z,16.74
2023-04-25T14:34:47.740Z,16.22
2023-04-25T14:37:16.282Z,15.78
2023-04-25T14:39:45.933Z,16.18
2023-04-25T14:42:14.521Z,16.51
2023-04-25T14:44:42.126Z,16.50
2023-04-25T14:47:10.120Z,16.89
2023-04-25T14:49:37.805Z,16.94
2023-04-25T14:52:05.783Z,17.19
2023-04-25T14:54:33.524Z,16.78
2023-04-25T14:57:02.504Z,17.37
2023-04-25T14:59:30.830Z,17.43
2023-04-25T15:01:59.864Z,17.48
2023-04-25T15:04:27.967Z,18.00
2023-04-25T15:06:57.231Z,18.74
2023-04-25T15:09:25.302Z,19.29
2023-04-25T15:11:53.792Z,19.67
2023-04-25T15:14:21.357Z,19.84
2023-04-25T15:16:49.380Z,20.53
2023-04-25T15:19:17.244Z,20.33
2023-04-25T15:21:45.470Z,20.69
2023-04-25T15:24:13.353Z,20.31
2023-04-25T15:26:41.902Z,20.58
2023-04-25T15:29:10.058Z,20.31
2023-04-25T15:31:37.995Z,20.64
2023-04-25T15:34:05.636Z,21.04
2023-04-25T15:36:33.714Z,21.13
2023-04-25T15:39:01.628Z,20.36
2023-04-25T15:41:29.974Z,19.89
2023-04-25T15:43:57.658Z,20.49
2023-04-25T15:46:25.845Z,20.38
2023-04-25T15:48:53.536Z,20.13
2023-04-25T15:51:21.546Z,20.84
2023-04-25T15:53:49.547Z,20.05
2023-04-25T15:56:18.166Z,19.82
2023-04-25T15:58:45.885Z,20.30
2023-04-25T16:01:14.085Z,20.93
2023-04-25T16:03:41.918Z,21.09
2023-04-25T16:06:09.944Z,21.18
2023-04-25T16:08:38.068Z,21.25
2023-04-25T16:14:31.621Z,21.30
2023-04-25T16:17:02.712Z,21.20
2023-04-25T16:19:30.391Z,21.32
2023-04-25T16:21:58.357Z,21.22
2023-04-25T16:24:25.979Z,21.49
2023-04-25T16:26:54.167Z,21.58
2023-04-25T16:29:21.790Z,21.51
2023-04-25T16:31:49.894Z,21.16
2023-04-25T16:34:17.658Z,21.30
2023-04-25T16:36:45.987Z,21.34
2023-04-25T16:39:13.616Z,21.22
2023-04-25T16:41:41.706Z,21.00
2023-04-25T16:44:09.548Z,21.10
2023-04-25T16:46:38.323Z,21.18
2023-04-25T16:49:06.621Z,21.06
2023-04-25T16:51:34.744Z,21.17
2023-04-25T16:54:02.478Z,20.94
2023-04-25T16:56:30.597Z,20.93
2023-04-25T16:58:58.265Z,20.66
2023-04-25T17:01:26.544Z,20.76
2023-04-25T17:03:54.348Z,21.06
2023-04-25T17:06:27.506Z,20.77
2023-04-25T17:08:56.520Z,20.70
2023-04-25T17:11:24.956Z,20.63
2023-04-25T17:13:53.441Z,20.42
2023-04-25T17:16:23.445Z,20.45
2023-04-25T17:18:51.711Z,20.58
2023-04-25T17:21:20.297Z,20.51
2023-04-25T17:23:48.275Z,19.98
2023-04-25T17:26:16.757Z,19.41
2023-04-25T17:28:49.832Z,19.35
2023-04-25T17:31:18.377Z,19.04
2023-04-25T17:33:46.083Z,18.83
2023-04-25T17:36:14.121Z,18.53
2023-04-25T17:38:41.748Z,18.31
2023-04-25T17:41:11.246Z,18.41
2023-04-25T17:43:38.962Z,18.32
2023-04-25T17:46:07.377Z,18.12
2023-04-25T17:48:35.021Z,18.36
2023-04-25T17:51:03.062Z,18.53
2023-04-25T17:53:31.089Z,18.54
2023-04-25T17:55:59.136Z,18.15
2023-04-25T17:58:27.462Z,18.30
2023-04-25T18:00:55.422Z,18.32
2023-04-25T18:03:23.546Z,17.92
2023-04-25T18:05:51.711Z,17.62
2023-04-25T18:08:19.482Z,17.61
2023-04-25T18:10:47.501Z,17.19
2023-04-25T18:13:15.163Z,17.00
2023-04-25T18:15:43.245Z,17.08
2023-04-25T18:18:19.883Z,17.41
2023-04-25T18:20:48.021Z,17.28
2023-04-25T18:23:15.754Z,17.24
2023-04-25T18:25:43.757Z,17.35
2023-04-25T18:28:11.574Z,17.39
2023-04-25T18:30:39.535Z,16.80
2023-04-25T18:33:07.261Z,16.84
2023-04-25T18:35:38.565Z,16.89
2023-04-25T18:38:08.698Z,17.05
2023-04-25T18:40:47.004Z,17.29
2023-04-25T18:43:21.816Z,17.32
2023-04-25T18:45:49.828Z,17.54
2023-04-25T18:48:17.520Z,17.51
2023-04-25T18:50:45.726Z,17.36
2023-04-25T18:53:13.403Z,17.36
2023-04-25T18:55:41.985Z,17.20
2023-04-25T18:58:09.712Z,17.23
2023-04-25T19:00:38.182Z,17.07
2023-04-25T19:03:06.045Z,17.43
2023-04-25T19:05:34.084Z,17.05
2023-04-25T19:08:01.913Z,17.10
2023-04-25T19:10:29.948Z,17.20
2023-04-25T19:12:57.781Z,16.82
2023-04-25T19:15:26.544Z,16.98
2023-04-25T19:17:54.299Z,17.00
2023-04-25T19:20:22.514Z,16.92
2023-04-25T19:22:50.145Z,16.72
2023-04-25T19:25:18.172Z,16.58
2023-04-25T19:27:45.925Z,16.97
2023-04-25T19:30:14.143Z,16.99
2023-04-25T19:32:41.853Z,16.70
2023-04-25T19:35:11.336Z,16.88
2023-04-25T19:37:41.578Z,16.83
2023-04-25T19:40:09.776Z,16.50
2023-04-25T19:42:37.450Z,16.61
2023-04-25T19:45:05.660Z,16.52
2023-04-25T19:47:33.460Z,16.23
2023-04-25T19:50:01.511Z,16.45
2023-04-25T19:52:29.124Z,16.70
2023-04-25T19:55:02.252Z,16.46
2023-04-25T19:57:33.281Z,16.38
2023-04-25T20:00:05.359Z,16.57
2023-04-25T20:02:39.877Z,16.51
2023-04-25T20:05:09.155Z,16.31
2023-04-25T20:07:37.339Z,16.33
2023-04-25T20:10:07.319Z,16.27
2023-04-25T20:12:38.702Z,16.10
2023-04-25T20:15:09.719Z,16.08
2023-04-25T20:17:39.627Z,16.07
2023-04-25T20:20:08.497Z,15.96
2023-04-25T20:22:40.823Z,16.02
2023-04-25T20:25:10.077Z,16.02
2023-04-25T20:27:38.436Z,15.92
2023-04-25T20:30:08.411Z,15.96
2023-04-25T20:32:36.885Z,15.90
2023-04-25T20:35:06.305Z,16.07
2023-04-25T20:37:34.007Z,15.95
2023-04-25T20:40:04.058Z,15.83
2023-04-25T20:42:33.168Z,15.76
2023-04-25T20:45:01.478Z,15.72
2023-04-25T20:47:29.923Z,15.79
2023-04-25T20:49:59.568Z,15.71
2023-04-25T20:52:27.158Z,15.74
2023-04-25T20:54:55.154Z,15.73
2023-04-25T20:57:23.791Z,15.56
2023-04-25T20:59:52.888Z,15.59
2023-04-25T21:02:45.644Z,15.78
2023-04-25T21:05:13.845Z,15.75
2023-04-25T21:07:42.336Z,15.88
2023-04-25T21:10:10.545Z,15.59
2023-04-25T21:12:38.381Z,15.57
2023-04-25T21:15:06.748Z,15.57
2023-04-25T21:17:34.440Z,15.44
2023-04-25T21:20:02.499Z,15.63
2023-04-25T21:22:30.101Z,15.60
2023-04-25T21:25:04.404Z,15.54
2023-04-25T21:27:34.832Z,15.58
2023-04-25T21:30:02.859Z,15.67
2023-04-25T21:32:30.521Z,15.48
2023-04-25T21:34:58.601Z,15.46
2023-04-25T21:37:26.220Z,15.24
2023-04-25T21:39:54.671Z,15.17
2023-04-25T21:42:22.461Z,15.25
2023-04-25T21:44:50.572Z,15.09
2023-04-25T21:47:18.339Z,15.02
2023-04-25T21:49:46.515Z,15.12
2023-04-25T21:52:14.402Z,15.04
2023-04-25T21:54:42.661Z,15.19
2023-04-25T21:57:11.358Z,15.12
2023-04-25T21:59:40.399Z,15.09
2023-04-25T22:02:08.334Z,15.05
2023-04-25T22:04:36.828Z,15.12
2023-04-25T22:07:04.655Z,14.93
2023-04-25T22:09:34.707Z,14.77
2023-04-25T22:12:09.328Z,14.83
2023-04-25T22:14:39.969Z,14.85
2023-04-25T22:17:07.691Z,14.91
2023-04-25T22:19:37.194Z,14.86
2023-04-25T22:22:04.908Z,14.76
2023-04-25T22:24:33.237Z,14.72
2023-04-25T22:27:00.951Z,14.68
2023-04-25T22:29:28.969Z,14.64
2023-04-25T22:31:57.066Z,14.72
2023-04-25T22:34:25.283Z,14.62
2023-04-25T22:36:53.300Z,14.68
2023-04-25T22:39:21.375Z,14.56
2023-04-25T22:41:49.216Z,14.45
2023-04-25T22:44:18.171Z,14.43
2023-04-25T22:46:45.982Z,14.66
2023-04-25T22:49:14.842Z,14.47
2023-04-25T22:51:42.572Z,14.59
2023-04-25T22:54:10.556Z,14.40
2023-04-25T22:56:38.180Z,14.54
2023-04-25T22:59:06.553Z,14.37
2023-04-25T23:01:34.640Z,14.37
2023-04-25T23:04:02.798Z,14.45
2023-04-25T23:06:30.845Z,14.60
2023-04-25T23:08:58.818Z,14.38
2023-04-25T23:11:26.504Z,14.34
2023-04-25T23:13:55.445Z,14.27
2023-04-25T23:16:23.053Z,14.26
2023-04-25T23:18:51.219Z,14.35
2023-04-25T23:21:18.987Z,13.94
2023-04-25T23:23:46.966Z,14.21
2023-04-25T23:26:15.608Z,14.28
2023-04-25T23:28:43.577Z,14.05
2023-04-25T23:31:12.292Z,13.65
2023-04-25T23:33:40.696Z,13.96
2023-04-25T23:36:08.415Z,13.87
2023-04-25T23:38:36.528Z,14.11
2023-04-25T23:41:04.175Z,13.90
2023-04-25T23:43:32.124Z,13.90
2023-04-25T23:45:59.820Z,14.02
2023-04-25T23:48:28.109Z,13.97
2023-04-25T23:50:56.377Z,13.81
2023-04-25T23:53:24.385Z,13.88
2023-04-25T23:55:51.975Z,13.95
2023-04-25T23:58:20.169Z,13.92
